sensor_id;sensor_type;location;lat;lon;timestamp;temperature;humidity
12981;DHT22;6555;50.468;8.480;2022-11-21T00:04:20;8.50;64.30
12981;DHT22;6555;50.468;8.480;2022-11-21T00:09:24;8.50;64.20
12981;DHT22;6555;50.468;8.480;2022-11-21T00:14:28;8.50;64.20
12981;DHT22;6555;50.468;8.480;2022-11-21T00:19:32;8.40;64.10
12981;DHT22;6555;50.468;8.480;2022-11-21T00:24:36;8.40;64.20
12981;DHT22;6555;50.468;8.480;2022-11-21T00:29:40;8.40;64.10
12981;DHT22;6555;50.468;8.480;2022-11-21T00:34:43;8.40;64.10
12981;DHT22;6555;50.468;8.480;2022-11-21T00:39:47;8.40;64.10
12981;DHT22;6555;50.468;8.480;2022-11-21T00:44:50;8.40;64.20
12981;DHT22;6555;50.468;8.480;2022-11-21T00:49:53;8.30;64.20
12981;DHT22;6555;50.468;8.480;2022-11-21T00:54:58;8.40;64.20
12981;DHT22;6555;50.468;8.480;2022-11-21T01:00:01;8.40;64.30
12981;DHT22;6555;50.468;8.480;2022-11-21T01:05:04;8.40;64.30
12981;DHT22;6555;50.468;8.480;2022-11-21T01:10:09;8.30;64.40
12981;DHT22;6555;50.468;8.480;2022-11-21T01:15:12;8.40;64.40
12981;DHT22;6555;50.468;8.480;2022-11-21T01:20:16;8.40;64.40
12981;DHT22;6555;50.468;8.480;2022-11-21T01:25:20;8.40;64.40
12981;DHT22;6555;50.468;8.480;2022-11-21T01:30:23;8.40;64.40
12981;DHT22;6555;50.468;8.480;2022-11-21T01:35:26;8.40;64.50
12981;DHT22;6555;50.468;8.480;2022-11-21T01:40:37;8.40;64.60
12981;DHT22;6555;50.468;8.480;2022-11-21T01:45:52;8.40;64.70
12981;DHT22;6555;50.468;8.480;2022-11-21T01:50:59;8.40;64.70
12981;DHT22;6555;50.468;8.480;2022-11-21T01:56:07;8.40;64.70
12981;DHT22;6555;50.468;8.480;2022-11-21T02:01:10;8.40;64.60
12981;DHT22;6555;50.468;8.480;2022-11-21T02:06:14;8.40;64.60
12981;DHT22;6555;50.468;8.480;2022-11-21T02:11:25;8.40;64.60
12981;DHT22;6555;50.468;8.480;2022-11-21T02:16:30;8.40;64.50
12981;DHT22;6555;50.468;8.480;2022-11-21T02:21:41;8.40;64.50
12981;DHT22;6555;50.468;8.480;2022-11-21T02:26:48;8.40;64.50
12981;DHT22;6555;50.468;8.480;2022-11-21T02:31:51;8.40;64.50
12981;DHT22;6555;50.468;8.480;2022-11-21T02:36:55;8.40;64.60
12981;DHT22;6555;50.468;8.480;2022-11-21T02:42:04;8.40;64.60
12981;DHT22;6555;50.468;8.480;2022-11-21T02:47:08;8.50;64.80
12981;DHT22;6555;50.468;8.480;2022-11-21T02:52:11;8.40;64.60
12981;DHT22;6555;50.468;8.480;2022-11-21T02:57:16;8.50;64.70
12981;DHT22;6555;50.468;8.480;2022-11-21T03:02:19;8.50;64.70
12981;DHT22;6555;50.468;8.480;2022-11-21T03:07:22;8.50;64.60
12981;DHT22;6555;50.468;8.480;2022-11-21T03:12:26;8.50;64.70
12981;DHT22;6555;50.468;8.480;2022-11-21T03:17:29;8.50;64.60
12981;DHT22;6555;50.468;8.480;2022-11-21T03:22:32;8.60;64.60
12981;DHT22;6555;50.468;8.480;2022-11-21T03:27:37;8.60;64.50
12981;DHT22;6555;50.468;8.480;2022-11-21T03:32:40;8.60;64.50
12981;DHT22;6555;50.468;8.480;2022-11-21T03:37:43;8.60;64.30
12981;DHT22;6555;50.468;8.480;2022-11-21T03:42:47;8.60;64.40
12981;DHT22;6555;50.468;8.480;2022-11-21T03:47:50;8.60;64.50
12981;DHT22;6555;50.468;8.480;2022-11-21T03:52:53;8.60;64.50
12981;DHT22;6555;50.468;8.480;2022-11-21T03:57:57;8.60;64.50
12981;DHT22;6555;50.468;8.480;2022-11-21T04:03:00;8.60;64.50
12981;DHT22;6555;50.468;8.480;2022-11-21T04:08:04;8.60;64.50
12981;DHT22;6555;50.468;8.480;2022-11-21T04:13:08;8.60;64.50
12981;DHT22;6555;50.468;8.480;2022-11-21T04:18:11;8.60;64.50
12981;DHT22;6555;50.468;8.480;2022-11-21T04:23:14;8.60;64.50
12981;DHT22;6555;50.468;8.480;2022-11-21T04:28:19;8.60;64.90
12981;DHT22;6555;50.468;8.480;2022-11-21T04:33:22;8.50;64.70
12981;DHT22;6555;50.468;8.480;2022-11-21T04:38:25;8.60;64.60
12981;DHT22;6555;50.468;8.480;2022-11-21T04:43:29;8.60;64.70
12981;DHT22;6555;50.468;8.480;2022-11-21T04:48:32;8.60;64.60
12981;DHT22;6555;50.468;8.480;2022-11-21T04:53:35;8.60;64.60
12981;DHT22;6555;50.468;8.480;2022-11-21T04:58:45;8.50;64.60
12981;DHT22;6555;50.468;8.480;2022-11-21T05:03:48;8.50;64.60
12981;DHT22;6555;50.468;8.480;2022-11-21T05:08:51;8.50;64.60
12981;DHT22;6555;50.468;8.480;2022-11-21T05:13:56;8.50;64.70
12981;DHT22;6555;50.468;8.480;2022-11-21T05:18:59;8.60;64.60
12981;DHT22;6555;50.468;8.480;2022-11-21T05:24:02;8.50;64.60
12981;DHT22;6555;50.468;8.480;2022-11-21T05:29:06;8.50;64.60
12981;DHT22;6555;50.468;8.480;2022-11-21T05:34:09;8.50;64.70
12981;DHT22;6555;50.468;8.480;2022-11-21T05:39:12;8.60;64.70
12981;DHT22;6555;50.468;8.480;2022-11-21T05:44:18;8.60;64.70
12981;DHT22;6555;50.468;8.480;2022-11-21T05:49:21;8.50;64.60
12981;DHT22;6555;50.468;8.480;2022-11-21T05:54:24;8.50;64.60
12981;DHT22;6555;50.468;8.480;2022-11-21T05:59:29;8.50;64.60
12981;DHT22;6555;50.468;8.480;2022-11-21T06:04:32;8.50;64.70
12981;DHT22;6555;50.468;8.480;2022-11-21T06:09:36;8.50;64.70
12981;DHT22;6555;50.468;8.480;2022-11-21T06:14:40;8.60;64.70
12981;DHT22;6555;50.468;8.480;2022-11-21T06:19:43;8.60;64.60
12981;DHT22;6555;50.468;8.480;2022-11-21T06:24:46;8.60;64.60
12981;DHT22;6555;50.468;8.480;2022-11-21T06:29:51;8.60;64.50
12981;DHT22;6555;50.468;8.480;2022-11-21T06:34:54;8.60;64.50
12981;DHT22;6555;50.468;8.480;2022-11-21T06:39:57;8.60;64.50
12981;DHT22;6555;50.468;8.480;2022-11-21T06:45:02;8.60;64.50
12981;DHT22;6555;50.468;8.480;2022-11-21T06:50:06;8.60;64.50
12981;DHT22;6555;50.468;8.480;2022-11-21T06:55:10;8.60;64.50
12981;DHT22;6555;50.468;8.480;2022-11-21T07:00:16;8.60;64.40
12981;DHT22;6555;50.468;8.480;2022-11-21T07:05:19;8.60;64.60
12981;DHT22;6555;50.468;8.480;2022-11-21T07:10:22;8.60;64.50
12981;DHT22;6555;50.468;8.480;2022-11-21T07:15:27;8.50;64.50
12981;DHT22;6555;50.468;8.480;2022-11-21T07:20:30;8.50;64.50
12981;DHT22;6555;50.468;8.480;2022-11-21T07:25:33;8.50;64.50
12981;DHT22;6555;50.468;8.480;2022-11-21T07:30:39;8.50;64.60
12981;DHT22;6555;50.468;8.480;2022-11-21T07:35:42;8.50;64.60
12981;DHT22;6555;50.468;8.480;2022-11-21T07:40:46;8.50;64.60
12981;DHT22;6555;50.468;8.480;2022-11-21T07:45:50;8.50;64.60
12981;DHT22;6555;50.468;8.480;2022-11-21T07:50:53;8.50;64.60
12981;DHT22;6555;50.468;8.480;2022-11-21T07:55:57;8.50;64.60
12981;DHT22;6555;50.468;8.480;2022-11-21T08:01:03;8.50;64.70
12981;DHT22;6555;50.468;8.480;2022-11-21T08:06:09;8.50;64.70
12981;DHT22;6555;50.468;8.480;2022-11-21T08:11:13;8.50;64.70
12981;DHT22;6555;50.468;8.480;2022-11-21T08:16:17;8.50;64.70
12981;DHT22;6555;50.468;8.480;2022-11-21T08:21:20;8.50;64.70
12981;DHT22;6555;50.468;8.480;2022-11-21T08:26:23;8.50;64.60
12981;DHT22;6555;50.468;8.480;2022-11-21T08:31:28;8.60;64.70
12981;DHT22;6555;50.468;8.480;2022-11-21T08:36:31;8.60;64.70
12981;DHT22;6555;50.468;8.480;2022-11-21T08:41:34;8.60;65.00
12981;DHT22;6555;50.468;8.480;2022-11-21T08:46:56;8.70;65.20
12981;DHT22;6555;50.468;8.480;2022-11-21T08:51:59;8.80;65.00
12981;DHT22;6555;50.468;8.480;2022-11-21T08:57:02;8.80;64.90
12981;DHT22;6555;50.468;8.480;2022-11-21T09:02:09;8.80;64.80
12981;DHT22;6555;50.468;8.480;2022-11-21T09:07:13;8.90;64.90
12981;DHT22;6555;50.468;8.480;2022-11-21T09:12:16;8.90;64.90
12981;DHT22;6555;50.468;8.480;2022-11-21T09:17:20;8.90;65.00
12981;DHT22;6555;50.468;8.480;2022-11-21T09:22:40;9.00;65.00
12981;DHT22;6555;50.468;8.480;2022-11-21T09:27:43;9.10;64.90
12981;DHT22;6555;50.468;8.480;2022-11-21T09:32:49;9.10;64.80
12981;DHT22;6555;50.468;8.480;2022-11-21T09:37:52;9.10;64.80
12981;DHT22;6555;50.468;8.480;2022-11-21T09:43:05;9.10;64.70
12981;DHT22;6555;50.468;8.480;2022-11-21T09:48:16;9.10;64.60
12981;DHT22;6555;50.468;8.480;2022-11-21T09:53:23;9.10;64.60
12981;DHT22;6555;50.468;8.480;2022-11-21T09:58:30;9.10;64.70
12981;DHT22;6555;50.468;8.480;2022-11-21T10:03:40;9.10;64.80
12981;DHT22;6555;50.468;8.480;2022-11-21T10:08:51;9.10;64.70
12981;DHT22;6555;50.468;8.480;2022-11-21T10:14:05;9.20;64.80
12981;DHT22;6555;50.468;8.480;2022-11-21T10:19:44;9.30;65.10
12981;DHT22;6555;50.468;8.480;2022-11-21T10:24:54;9.30;65.00
12981;DHT22;6555;50.468;8.480;2022-11-21T10:30:02;9.50;65.10
12981;DHT22;6555;50.468;8.480;2022-11-21T10:35:15;9.50;65.00
12981;DHT22;6555;50.468;8.480;2022-11-21T10:40:35;9.60;64.50
12981;DHT22;6555;50.468;8.480;2022-11-21T10:45:38;9.60;64.30
12981;DHT22;6555;50.468;8.480;2022-11-21T10:50:52;9.60;64.50
12981;DHT22;6555;50.468;8.480;2022-11-21T10:56:06;9.60;64.60
12981;DHT22;6555;50.468;8.480;2022-11-21T11:01:23;9.70;64.90
12981;DHT22;6555;50.468;8.480;2022-11-21T11:06:28;9.80;64.70
12981;DHT22;6555;50.468;8.480;2022-11-21T11:11:31;9.80;64.60
12981;DHT22;6555;50.468;8.480;2022-11-21T11:16:35;9.90;64.30
12981;DHT22;6555;50.468;8.480;2022-11-21T11:21:44;10.00;64.20
12981;DHT22;6555;50.468;8.480;2022-11-21T11:26:55;9.90;64.10
12981;DHT22;6555;50.468;8.480;2022-11-21T11:32:01;10.00;64.10
12981;DHT22;6555;50.468;8.480;2022-11-21T11:37:11;10.00;64.00
12981;DHT22;6555;50.468;8.480;2022-11-21T11:42:44;10.00;63.90
12981;DHT22;6555;50.468;8.480;2022-11-21T11:48:09;10.00;63.80
12981;DHT22;6555;50.468;8.480;2022-11-21T11:53:16;10.00;63.70
12981;DHT22;6555;50.468;8.480;2022-11-21T11:58:25;10.00;63.70
12981;DHT22;6555;50.468;8.480;2022-11-21T12:03:37;10.00;63.70
12981;DHT22;6555;50.468;8.480;2022-11-21T12:08:50;10.10;63.70
12981;DHT22;6555;50.468;8.480;2022-11-21T12:13:54;10.10;63.70
12981;DHT22;6555;50.468;8.480;2022-11-21T12:19:02;10.10;63.70
12981;DHT22;6555;50.468;8.480;2022-11-21T12:24:09;10.10;63.30
12981;DHT22;6555;50.468;8.480;2022-11-21T12:29:21;10.10;63.30
12981;DHT22;6555;50.468;8.480;2022-11-21T12:34:35;10.10;63.20
12981;DHT22;6555;50.468;8.480;2022-11-21T12:39:57;10.20;63.10
12981;DHT22;6555;50.468;8.480;2022-11-21T12:45:09;10.20;62.80
12981;DHT22;6555;50.468;8.480;2022-11-21T12:50:24;10.20;63.10
12981;DHT22;6555;50.468;8.480;2022-11-21T12:55:56;10.20;63.20
12981;DHT22;6555;50.468;8.480;2022-11-21T13:01:11;10.20;63.10
12981;DHT22;6555;50.468;8.480;2022-11-21T13:06:24;10.30;63.20
12981;DHT22;6555;50.468;8.480;2022-11-21T13:11:40;10.30;63.10
12981;DHT22;6555;50.468;8.480;2022-11-21T13:17:09;10.20;62.80
12981;DHT22;6555;50.468;8.480;2022-11-21T13:22:48;10.20;63.00
12981;DHT22;6555;50.468;8.480;2022-11-21T13:27:52;10.30;63.10
12981;DHT22;6555;50.468;8.480;2022-11-21T13:32:56;10.30;63.20
12981;DHT22;6555;50.468;8.480;2022-11-21T13:38:00;10.30;63.30
12981;DHT22;6555;50.468;8.480;2022-11-21T13:43:23;10.30;63.20
12981;DHT22;6555;50.468;8.480;2022-11-21T13:48:56;10.30;62.90
12981;DHT22;6555;50.468;8.480;2022-11-21T13:54:27;10.30;62.90
12981;DHT22;6555;50.468;8.480;2022-11-21T13:59:56;10.40;62.80
12981;DHT22;6555;50.468;8.480;2022-11-21T14:10:45;10.40;62.40
12981;DHT22;6555;50.468;8.480;2022-11-21T14:16:00;10.30;62.70
12981;DHT22;6555;50.468;8.480;2022-11-21T14:21:05;10.30;62.60
12981;DHT22;6555;50.468;8.480;2022-11-21T14:26:11;10.40;62.80
12981;DHT22;6555;50.468;8.480;2022-11-21T14:31:17;10.30;62.80
12981;DHT22;6555;50.468;8.480;2022-11-21T14:36:22;10.40;62.80
12981;DHT22;6555;50.468;8.480;2022-11-21T14:41:29;10.30;62.50
12981;DHT22;6555;50.468;8.480;2022-11-21T14:46:35;10.40;62.30
12981;DHT22;6555;50.468;8.480;2022-11-21T14:51:39;10.40;62.30
12981;DHT22;6555;50.468;8.480;2022-11-21T14:56:46;10.30;62.20
12981;DHT22;6555;50.468;8.480;2022-11-21T15:01:57;10.30;61.90
12981;DHT22;6555;50.468;8.480;2022-11-21T15:07:01;10.30;61.50
12981;DHT22;6555;50.468;8.480;2022-11-21T15:12:06;10.20;61.70
12981;DHT22;6555;50.468;8.480;2022-11-21T15:17:15;10.10;61.70
12981;DHT22;6555;50.468;8.480;2022-11-21T15:22:27;10.10;61.60
12981;DHT22;6555;50.468;8.480;2022-11-21T15:27:32;10.00;60.80
12981;DHT22;6555;50.468;8.480;2022-11-21T15:33:05;9.90;60.90
12981;DHT22;6555;50.468;8.480;2022-11-21T15:38:23;9.70;60.00
12981;DHT22;6555;50.468;8.480;2022-11-21T15:43:38;9.50;60.60
12981;DHT22;6555;50.468;8.480;2022-11-21T15:48:45;9.40;60.00
12981;DHT22;6555;50.468;8.480;2022-11-21T15:53:49;9.20;60.40
12981;DHT22;6555;50.468;8.480;2022-11-21T15:58:53;9.10;60.80
12981;DHT22;6555;50.468;8.480;2022-11-21T16:03:58;8.90;61.00
12981;DHT22;6555;50.468;8.480;2022-11-21T16:09:03;8.80;60.90
12981;DHT22;6555;50.468;8.480;2022-11-21T16:14:06;8.80;61.10
12981;DHT22;6555;50.468;8.480;2022-11-21T16:19:12;8.70;60.90
12981;DHT22;6555;50.468;8.480;2022-11-21T16:24:15;8.60;60.80
12981;DHT22;6555;50.468;8.480;2022-11-21T16:29:18;8.50;60.80
12981;DHT22;6555;50.468;8.480;2022-11-21T16:34:24;8.50;61.10
12981;DHT22;6555;50.468;8.480;2022-11-21T16:39:27;8.40;61.30
12981;DHT22;6555;50.468;8.480;2022-11-21T16:44:30;8.40;61.20
12981;DHT22;6555;50.468;8.480;2022-11-21T16:49:35;8.40;61.30
12981;DHT22;6555;50.468;8.480;2022-11-21T16:54:43;8.30;61.20
12981;DHT22;6555;50.468;8.480;2022-11-21T16:59:48;8.30;61.20
12981;DHT22;6555;50.468;8.480;2022-11-21T17:04:52;8.30;61.30
12981;DHT22;6555;50.468;8.480;2022-11-21T17:09:55;8.20;61.20
12981;DHT22;6555;50.468;8.480;2022-11-21T17:14:58;8.10;61.50
12981;DHT22;6555;50.468;8.480;2022-11-21T17:20:02;8.10;61.70
12981;DHT22;6555;50.468;8.480;2022-11-21T17:25:06;8.10;61.70
12981;DHT22;6555;50.468;8.480;2022-11-21T17:30:10;8.10;61.70
12981;DHT22;6555;50.468;8.480;2022-11-21T17:35:15;8.10;61.70
12981;DHT22;6555;50.468;8.480;2022-11-21T17:40:18;8.00;61.50
12981;DHT22;6555;50.468;8.480;2022-11-21T17:45:21;8.10;61.80
12981;DHT22;6555;50.468;8.480;2022-11-21T17:50:25;8.10;61.90
12981;DHT22;6555;50.468;8.480;2022-11-21T17:55:28;8.10;62.00
12981;DHT22;6555;50.468;8.480;2022-11-21T18:00:31;8.10;61.90
12981;DHT22;6555;50.468;8.480;2022-11-21T18:05:36;8.20;61.80
12981;DHT22;6555;50.468;8.480;2022-11-21T18:10:39;8.20;61.40
12981;DHT22;6555;50.468;8.480;2022-11-21T18:15:44;8.20;61.60
12981;DHT22;6555;50.468;8.480;2022-11-21T18:20:51;8.20;61.60
12981;DHT22;6555;50.468;8.480;2022-11-21T18:25:54;8.10;61.20
12981;DHT22;6555;50.468;8.480;2022-11-21T18:31:04;8.10;61.60
12981;DHT22;6555;50.468;8.480;2022-11-21T18:36:10;8.20;61.80
12981;DHT22;6555;50.468;8.480;2022-11-21T18:41:15;8.10;61.80
12981;DHT22;6555;50.468;8.480;2022-11-21T18:46:19;8.20;61.90
12981;DHT22;6555;50.468;8.480;2022-11-21T18:51:26;8.20;61.90
12981;DHT22;6555;50.468;8.480;2022-11-21T18:56:29;8.20;62.00
12981;DHT22;6555;50.468;8.480;2022-11-21T19:01:34;8.30;62.10
12981;DHT22;6555;50.468;8.480;2022-11-21T19:06:39;8.30;62.10
12981;DHT22;6555;50.468;8.480;2022-11-21T19:11:42;8.40;62.00
12981;DHT22;6555;50.468;8.480;2022-11-21T19:16:45;8.40;62.00
12981;DHT22;6555;50.468;8.480;2022-11-21T19:21:49;8.40;61.90
12981;DHT22;6555;50.468;8.480;2022-11-21T19:26:52;8.50;62.10
12981;DHT22;6555;50.468;8.480;2022-11-21T19:31:55;8.50;61.90
12981;DHT22;6555;50.468;8.480;2022-11-21T19:37:00;8.50;61.80
12981;DHT22;6555;50.468;8.480;2022-11-21T19:42:03;8.40;61.80
12981;DHT22;6555;50.468;8.480;2022-11-21T19:47:06;8.50;61.60
12981;DHT22;6555;50.468;8.480;2022-11-21T19:52:10;8.40;61.50
12981;DHT22;6555;50.468;8.480;2022-11-21T19:57:13;8.40;61.70
12981;DHT22;6555;50.468;8.480;2022-11-21T20:02:18;8.40;61.40
12981;DHT22;6555;50.468;8.480;2022-11-21T20:07:23;8.40;61.50
12981;DHT22;6555;50.468;8.480;2022-11-21T20:12:26;8.40;61.40
12981;DHT22;6555;50.468;8.480;2022-11-21T20:17:29;8.40;61.60
12981;DHT22;6555;50.468;8.480;2022-11-21T20:22:33;8.40;61.70
12981;DHT22;6555;50.468;8.480;2022-11-21T20:27:37;8.40;61.80
12981;DHT22;6555;50.468;8.480;2022-11-21T20:32:40;8.40;61.90
12981;DHT22;6555;50.468;8.480;2022-11-21T20:37:45;8.50;62.80
12981;DHT22;6555;50.468;8.480;2022-11-21T20:42:47;8.50;62.10
12981;DHT22;6555;50.468;8.480;2022-11-21T20:47:53;8.50;62.00
12981;DHT22;6555;50.468;8.480;2022-11-21T20:52:57;8.60;61.90
12981;DHT22;6555;50.468;8.480;2022-11-21T20:58:20;8.60;61.60
12981;DHT22;6555;50.468;8.480;2022-11-21T21:03:24;8.60;61.50
12981;DHT22;6555;50.468;8.480;2022-11-21T21:08:29;8.60;61.60
12981;DHT22;6555;50.468;8.480;2022-11-21T21:13:33;8.60;61.60
12981;DHT22;6555;50.468;8.480;2022-11-21T21:18:36;8.60;61.50
12981;DHT22;6555;50.468;8.480;2022-11-21T21:23:42;8.60;61.40
12981;DHT22;6555;50.468;8.480;2022-11-21T21:28:46;8.60;61.40
12981;DHT22;6555;50.468;8.480;2022-11-21T21:33:49;8.60;61.40
12981;DHT22;6555;50.468;8.480;2022-11-21T21:38:55;8.50;61.20
12981;DHT22;6555;50.468;8.480;2022-11-21T21:43:58;8.50;61.20
12981;DHT22;6555;50.468;8.480;2022-11-21T21:49:02;8.40;61.30
12981;DHT22;6555;50.468;8.480;2022-11-21T21:54:12;8.40;61.60
12981;DHT22;6555;50.468;8.480;2022-11-21T21:59:16;8.40;61.70
12981;DHT22;6555;50.468;8.480;2022-11-21T22:04:20;8.30;62.00
12981;DHT22;6555;50.468;8.480;2022-11-21T22:09:24;8.20;62.00
12981;DHT22;6555;50.468;8.480;2022-11-21T22:14:28;8.20;62.30
12981;DHT22;6555;50.468;8.480;2022-11-21T22:19:31;8.10;62.40
12981;DHT22;6555;50.468;8.480;2022-11-21T22:24:35;8.10;62.60
12981;DHT22;6555;50.468;8.480;2022-11-21T22:29:40;8.10;63.40
12981;DHT22;6555;50.468;8.480;2022-11-21T22:34:43;8.10;62.70
12981;DHT22;6555;50.468;8.480;2022-11-21T22:39:48;8.10;62.70
12981;DHT22;6555;50.468;8.480;2022-11-21T22:44:50;8.10;62.70
12981;DHT22;6555;50.468;8.480;2022-11-21T22:49:53;8.10;62.60
12981;DHT22;6555;50.468;8.480;2022-11-21T22:54:58;8.10;62.70
12981;DHT22;6555;50.468;8.480;2022-11-21T23:00:01;8.10;62.80
12981;DHT22;6555;50.468;8.480;2022-11-21T23:05:05;8.10;62.80
12981;DHT22;6555;50.468;8.480;2022-11-21T23:10:10;8.00;62.80
12981;DHT22;6555;50.468;8.480;2022-11-21T23:15:13;8.00;62.70
12981;DHT22;6555;50.468;8.480;2022-11-21T23:20:16;8.00;62.90
12981;DHT22;6555;50.468;8.480;2022-11-21T23:25:21;8.00;62.80
12981;DHT22;6555;50.468;8.480;2022-11-21T23:30:24;8.00;63.00
12981;DHT22;6555;50.468;8.480;2022-11-21T23:35:27;8.00;63.00
12981;DHT22;6555;50.468;8.480;2022-11-21T23:40:31;8.00;63.00
12981;DHT22;6555;50.468;8.480;2022-11-21T23:45:34;7.90;63.00
12981;DHT22;6555;50.468;8.480;2022-11-21T23:50:37;7.90;63.30
12981;DHT22;6555;50.468;8.480;2022-11-21T23:55:43;7.90;63.20
